sensor_id;sensor_type;location;lat;lon;timestamp;P1;durP1;ratioP1;P2;durP2;ratioP2
77466;SDS011;66564;42.482;25.548;2023-03-14T00:02:05;3.72;;;2.53;;
77466;SDS011;66564;42.482;25.548;2023-03-14T00:04:31;3.95;;;1.83;;
77466;SDS011;66564;42.482;25.548;2023-03-14T00:06:56;4.05;;;1.90;;
77466;SDS011;66564;42.482;25.548;2023-03-14T00:09:21;2.85;;;1.98;;
77466;SDS011;66564;42.482;25.548;2023-03-14T00:11:47;3.60;;;2.10;;
77466;SDS011;66564;42.482;25.548;2023-03-14T00:14:12;4.28;;;2.13;;
77466;SDS011;66564;42.482;25.548;2023-03-14T00:16:40;3.78;;;1.80;;
77466;SDS011;66564;42.482;25.548;2023-03-14T00:19:06;2.72;;;1.90;;
77466;SDS011;66564;42.482;25.548;2023-03-14T00:21:31;3.40;;;2.38;;
77466;SDS011;66564;42.482;25.548;2023-03-14T00:23:57;3.58;;;2.20;;
77466;SDS011;66564;42.482;25.548;2023-03-14T00:26:22;3.42;;;1.73;;
77466;SDS011;66564;42.482;25.548;2023-03-14T00:28:50;3.97;;;2.40;;
77466;SDS011;66564;42.482;25.548;2023-03-14T00:31:17;6.28;;;2.35;;
77466;SDS011;66564;42.482;25.548;2023-03-14T00:33:44;7.57;;;2.50;;
77466;SDS011;66564;42.482;25.548;2023-03-14T00:36:11;4.35;;;2.38;;
77466;SDS011;66564;42.482;25.548;2023-03-14T00:38:39;3.67;;;2.25;;
77466;SDS011;66564;42.482;25.548;2023-03-14T00:41:06;6.35;;;2.45;;
77466;SDS011;66564;42.482;25.548;2023-03-14T00:43:34;6.75;;;2.72;;
77466;SDS011;66564;42.482;25.548;2023-03-14T00:46:00;4.90;;;2.67;;
77466;SDS011;66564;42.482;25.548;2023-03-14T00:48:26;4.10;;;2.72;;
77466;SDS011;66564;42.482;25.548;2023-03-14T00:50:52;4.18;;;2.58;;
77466;SDS011;66564;42.482;25.548;2023-03-14T00:53:17;4.20;;;2.70;;
77466;SDS011;66564;42.482;25.548;2023-03-14T00:55:43;3.88;;;2.63;;
77466;SDS011;66564;42.482;25.548;2023-03-14T00:58:09;5.70;;;2.88;;
77466;SDS011;66564;42.482;25.548;2023-03-14T01:00:36;4.47;;;2.70;;
77466;SDS011;66564;42.482;25.548;2023-03-14T01:03:02;3.65;;;2.50;;
77466;SDS011;66564;42.482;25.548;2023-03-14T01:05:28;5.43;;;2.22;;
77466;SDS011;66564;42.482;25.548;2023-03-14T01:07:54;3.40;;;2.10;;
77466;SDS011;66564;42.482;25.548;2023-03-14T01:10:20;3.60;;;2.35;;
77466;SDS011;66564;42.482;25.548;2023-03-14T01:12:45;3.97;;;2.00;;
77466;SDS011;66564;42.482;25.548;2023-03-14T01:15:11;4.15;;;2.53;;
77466;SDS011;66564;42.482;25.548;2023-03-14T01:17:36;5.03;;;3.10;;
77466;SDS011;66564;42.482;25.548;2023-03-14T01:20:03;5.97;;;2.28;;
77466;SDS011;66564;42.482;25.548;2023-03-14T01:22:30;4.45;;;2.50;;
77466;SDS011;66564;42.482;25.548;2023-03-14T01:24:55;5.03;;;2.38;;
77466;SDS011;66564;42.482;25.548;2023-03-14T01:27:21;4.32;;;2.78;;
77466;SDS011;66564;42.482;25.548;2023-03-14T01:29:46;4.38;;;2.88;;
77466;SDS011;66564;42.482;25.548;2023-03-14T01:32:12;12.65;;;2.60;;
77466;SDS011;66564;42.482;25.548;2023-03-14T01:34:38;3.95;;;2.33;;
77466;SDS011;66564;42.482;25.548;2023-03-14T01:37:03;5.97;;;2.67;;
77466;SDS011;66564;42.482;25.548;2023-03-14T01:39:29;5.13;;;2.53;;
77466;SDS011;66564;42.482;25.548;2023-03-14T01:41:55;4.40;;;2.40;;
77466;SDS011;66564;42.482;25.548;2023-03-14T01:44:20;5.50;;;2.95;;
77466;SDS011;66564;42.482;25.548;2023-03-14T01:46:46;4.20;;;2.45;;
77466;SDS011;66564;42.482;25.548;2023-03-14T01:54:51;4.35;;;2.50;;
77466;SDS011;66564;42.482;25.548;2023-03-14T01:57:22;4.10;;;2.55;;
77466;SDS011;66564;42.482;25.548;2023-03-14T01:59:52;6.97;;;2.50;;
77466;SDS011;66564;42.482;25.548;2023-03-14T02:02:21;4.30;;;2.75;;
77466;SDS011;66564;42.482;25.548;2023-03-14T02:04:48;6.72;;;2.55;;
77466;SDS011;66564;42.482;25.548;2023-03-14T02:07:18;4.40;;;2.60;;
77466;SDS011;66564;42.482;25.548;2023-03-14T02:12:17;4.47;;;2.30;;
77466;SDS011;66564;42.482;25.548;2023-03-14T02:14:43;4.07;;;2.40;;
77466;SDS011;66564;42.482;25.548;2023-03-14T02:17:15;3.85;;;2.60;;
77466;SDS011;66564;42.482;25.548;2023-03-14T02:22:33;4.07;;;2.75;;
77466;SDS011;66564;42.482;25.548;2023-03-14T02:25:11;4.78;;;2.70;;
77466;SDS011;66564;42.482;25.548;2023-03-14T02:27:57;5.00;;;2.92;;
77466;SDS011;66564;42.482;25.548;2023-03-14T02:30:25;3.78;;;2.65;;
77466;SDS011;66564;42.482;25.548;2023-03-14T02:32:54;4.10;;;2.63;;
77466;SDS011;66564;42.482;25.548;2023-03-14T02:35:24;4.82;;;2.67;;
77466;SDS011;66564;42.482;25.548;2023-03-14T02:38:35;4.80;;;2.80;;
77466;SDS011;66564;42.482;25.548;2023-03-14T02:40:56;6.35;;;2.75;;
77466;SDS011;66564;42.482;25.548;2023-03-14T02:43:22;4.70;;;2.70;;
77466;SDS011;66564;42.482;25.548;2023-03-14T02:45:48;4.82;;;2.90;;
77466;SDS011;66564;42.482;25.548;2023-03-14T02:48:16;7.70;;;3.20;;
77466;SDS011;66564;42.482;25.548;2023-03-14T02:50:46;3.83;;;2.67;;
77466;SDS011;66564;42.482;25.548;2023-03-14T02:53:18;5.38;;;2.97;;
77466;SDS011;66564;42.482;25.548;2023-03-14T02:55:47;3.17;;;2.50;;
77466;SDS011;66564;42.482;25.548;2023-03-14T02:58:13;6.03;;;2.53;;
77466;SDS011;66564;42.482;25.548;2023-03-14T03:00:39;5.53;;;2.72;;
77466;SDS011;66564;42.482;25.548;2023-03-14T03:03:04;2.85;;;1.95;;
77466;SDS011;66564;42.482;25.548;2023-03-14T03:05:31;3.60;;;2.50;;
77466;SDS011;66564;42.482;25.548;2023-03-14T03:07:56;5.20;;;2.20;;
77466;SDS011;66564;42.482;25.548;2023-03-14T03:10:22;6.03;;;2.13;;
77466;SDS011;66564;42.482;25.548;2023-03-14T03:12:48;4.28;;;2.10;;
77466;SDS011;66564;42.482;25.548;2023-03-14T03:15:13;4.55;;;2.30;;
77466;SDS011;66564;42.482;25.548;2023-03-14T03:17:39;5.18;;;2.42;;
77466;SDS011;66564;42.482;25.548;2023-03-14T03:20:04;2.92;;;1.80;;
77466;SDS011;66564;42.482;25.548;2023-03-14T03:22:33;3.72;;;2.38;;
77466;SDS011;66564;42.482;25.548;2023-03-14T03:24:59;4.82;;;2.58;;
77466;SDS011;66564;42.482;25.548;2023-03-14T03:27:24;4.20;;;2.30;;
77466;SDS011;66564;42.482;25.548;2023-03-14T03:29:50;3.58;;;2.30;;
77466;SDS011;66564;42.482;25.548;2023-03-14T03:32:15;3.65;;;2.22;;
77466;SDS011;66564;42.482;25.548;2023-03-14T03:34:41;4.40;;;2.20;;
77466;SDS011;66564;42.482;25.548;2023-03-14T03:37:06;6.40;;;2.53;;
77466;SDS011;66564;42.482;25.548;2023-03-14T03:39:32;3.58;;;2.40;;
77466;SDS011;66564;42.482;25.548;2023-03-14T03:41:57;4.88;;;2.40;;
77466;SDS011;66564;42.482;25.548;2023-03-14T03:44:23;5.45;;;2.20;;
77466;SDS011;66564;42.482;25.548;2023-03-14T03:46:48;5.82;;;2.33;;
77466;SDS011;66564;42.482;25.548;2023-03-14T03:49:14;5.43;;;2.60;;
77466;SDS011;66564;42.482;25.548;2023-03-14T03:51:39;5.05;;;2.78;;
77466;SDS011;66564;42.482;25.548;2023-03-14T03:54:05;5.85;;;2.97;;
77466;SDS011;66564;42.482;25.548;2023-03-14T03:56:31;4.43;;;2.45;;
77466;SDS011;66564;42.482;25.548;2023-03-14T03:58:56;4.45;;;2.47;;
77466;SDS011;66564;42.482;25.548;2023-03-14T04:01:22;4.20;;;2.45;;
77466;SDS011;66564;42.482;25.548;2023-03-14T04:03:47;4.72;;;2.30;;
77466;SDS011;66564;42.482;25.548;2023-03-14T04:06:13;3.53;;;2.47;;
77466;SDS011;66564;42.482;25.548;2023-03-14T04:08:39;4.22;;;2.40;;
77466;SDS011;66564;42.482;25.548;2023-03-14T04:11:05;5.03;;;2.88;;
77466;SDS011;66564;42.482;25.548;2023-03-14T04:13:31;5.55;;;3.10;;
77466;SDS011;66564;42.482;25.548;2023-03-14T04:15:57;4.93;;;2.55;;
77466;SDS011;66564;42.482;25.548;2023-03-14T04:18:22;3.90;;;2.50;;
77466;SDS011;66564;42.482;25.548;2023-03-14T04:20:51;5.05;;;2.28;;
77466;SDS011;66564;42.482;25.548;2023-03-14T04:23:18;5.43;;;2.42;;
77466;SDS011;66564;42.482;25.548;2023-03-14T04:25:43;3.70;;;2.45;;
77466;SDS011;66564;42.482;25.548;2023-03-14T04:28:09;4.63;;;2.60;;
77466;SDS011;66564;42.482;25.548;2023-03-14T04:30:34;4.65;;;2.53;;
77466;SDS011;66564;42.482;25.548;2023-03-14T04:33:00;3.35;;;2.00;;
77466;SDS011;66564;42.482;25.548;2023-03-14T04:35:25;2.78;;;2.10;;
77466;SDS011;66564;42.482;25.548;2023-03-14T04:37:51;3.85;;;2.67;;
77466;SDS011;66564;42.482;25.548;2023-03-14T04:40:17;4.82;;;2.42;;
77466;SDS011;66564;42.482;25.548;2023-03-14T04:42:42;3.60;;;2.20;;
77466;SDS011;66564;42.482;25.548;2023-03-14T04:45:08;4.30;;;2.20;;
77466;SDS011;66564;42.482;25.548;2023-03-14T04:47:34;4.30;;;2.33;;
77466;SDS011;66564;42.482;25.548;2023-03-14T04:49:59;3.20;;;2.60;;
77466;SDS011;66564;42.482;25.548;2023-03-14T04:52:26;3.15;;;2.33;;
77466;SDS011;66564;42.482;25.548;2023-03-14T04:54:52;4.15;;;2.30;;
77466;SDS011;66564;42.482;25.548;2023-03-14T04:57:18;3.08;;;2.38;;
77466;SDS011;66564;42.482;25.548;2023-03-14T04:59:44;3.13;;;2.40;;
77466;SDS011;66564;42.482;25.548;2023-03-14T05:02:09;3.45;;;2.22;;
77466;SDS011;66564;42.482;25.548;2023-03-14T05:04:35;5.40;;;2.20;;
77466;SDS011;66564;42.482;25.548;2023-03-14T05:07:00;4.15;;;2.33;;
77466;SDS011;66564;42.482;25.548;2023-03-14T05:09:26;3.50;;;1.92;;
77466;SDS011;66564;42.482;25.548;2023-03-14T05:11:51;3.20;;;2.13;;
77466;SDS011;66564;42.482;25.548;2023-03-14T05:14:17;4.53;;;2.22;;
77466;SDS011;66564;42.482;25.548;2023-03-14T05:16:43;4.70;;;2.50;;
77466;SDS011;66564;42.482;25.548;2023-03-14T05:19:10;3.45;;;2.25;;
77466;SDS011;66564;42.482;25.548;2023-03-14T05:21:35;4.22;;;2.08;;
77466;SDS011;66564;42.482;25.548;2023-03-14T05:24:01;3.30;;;2.30;;
77466;SDS011;66564;42.482;25.548;2023-03-14T05:26:27;6.05;;;2.60;;
77466;SDS011;66564;42.482;25.548;2023-03-14T05:28:53;9.60;;;6.10;;
77466;SDS011;66564;42.482;25.548;2023-03-14T05:31:18;22.52;;;13.43;;
77466;SDS011;66564;42.482;25.548;2023-03-14T05:33:44;27.13;;;14.45;;
77466;SDS011;66564;42.482;25.548;2023-03-14T05:36:09;12.20;;;6.60;;
77466;SDS011;66564;42.482;25.548;2023-03-14T05:38:35;7.65;;;4.32;;
77466;SDS011;66564;42.482;25.548;2023-03-14T05:41:00;8.55;;;6.03;;
77466;SDS011;66564;42.482;25.548;2023-03-14T05:43:26;8.30;;;5.63;;
77466;SDS011;66564;42.482;25.548;2023-03-14T05:45:51;6.30;;;3.17;;
77466;SDS011;66564;42.482;25.548;2023-03-14T05:48:17;10.55;;;3.17;;
77466;SDS011;66564;42.482;25.548;2023-03-14T05:50:43;8.77;;;2.92;;
77466;SDS011;66564;42.482;25.548;2023-03-14T05:53:08;3.92;;;2.50;;
77466;SDS011;66564;42.482;25.548;2023-03-14T05:55:35;6.72;;;2.95;;
77466;SDS011;66564;42.482;25.548;2023-03-14T05:58:01;6.75;;;3.45;;
77466;SDS011;66564;42.482;25.548;2023-03-14T06:00:26;9.25;;;4.72;;
77466;SDS011;66564;42.482;25.548;2023-03-14T06:02:52;10.27;;;6.75;;
77466;SDS011;66564;42.482;25.548;2023-03-14T06:05:17;8.13;;;4.05;;
77466;SDS011;66564;42.482;25.548;2023-03-14T06:07:43;7.78;;;4.43;;
77466;SDS011;66564;42.482;25.548;2023-03-14T06:10:08;4.55;;;3.20;;
77466;SDS011;66564;42.482;25.548;2023-03-14T06:12:34;4.90;;;3.38;;
77466;SDS011;66564;42.482;25.548;2023-03-14T06:15:00;4.72;;;3.03;;
77466;SDS011;66564;42.482;25.548;2023-03-14T06:17:25;6.80;;;3.35;;
77466;SDS011;66564;42.482;25.548;2023-03-14T06:19:51;5.72;;;3.70;;
77466;SDS011;66564;42.482;25.548;2023-03-14T06:22:16;7.13;;;3.40;;
77466;SDS011;66564;42.482;25.548;2023-03-14T06:24:42;6.20;;;3.75;;
77466;SDS011;66564;42.482;25.548;2023-03-14T06:27:07;14.10;;;4.15;;
77466;SDS011;66564;42.482;25.548;2023-03-14T06:29:33;8.77;;;3.38;;
77466;SDS011;66564;42.482;25.548;2023-03-14T06:31:58;5.05;;;2.55;;
77466;SDS011;66564;42.482;25.548;2023-03-14T06:34:24;4.40;;;2.38;;
77466;SDS011;66564;42.482;25.548;2023-03-14T06:36:49;4.10;;;2.55;;
77466;SDS011;66564;42.482;25.548;2023-03-14T06:39:15;6.00;;;2.78;;
77466;SDS011;66564;42.482;25.548;2023-03-14T06:41:40;4.30;;;2.70;;
77466;SDS011;66564;42.482;25.548;2023-03-14T06:44:06;7.20;;;2.47;;
77466;SDS011;66564;42.482;25.548;2023-03-14T06:46:31;3.90;;;2.60;;
77466;SDS011;66564;42.482;25.548;2023-03-14T06:48:57;5.25;;;2.72;;
77466;SDS011;66564;42.482;25.548;2023-03-14T06:51:22;4.90;;;2.47;;
77466;SDS011;66564;42.482;25.548;2023-03-14T06:53:48;6.10;;;2.83;;
77466;SDS011;66564;42.482;25.548;2023-03-14T06:56:13;8.05;;;3.75;;
77466;SDS011;66564;42.482;25.548;2023-03-14T06:58:39;6.45;;;3.25;;
77466;SDS011;66564;42.482;25.548;2023-03-14T07:01:05;14.77;;;8.10;;
77466;SDS011;66564;42.482;25.548;2023-03-14T07:03:31;9.50;;;3.55;;
77466;SDS011;66564;42.482;25.548;2023-03-14T07:05:56;7.22;;;3.28;;
77466;SDS011;66564;42.482;25.548;2023-03-14T07:08:22;6.10;;;2.92;;
77466;SDS011;66564;42.482;25.548;2023-03-14T07:10:47;5.30;;;3.00;;
77466;SDS011;66564;42.482;25.548;2023-03-14T07:13:13;3.53;;;2.50;;
77466;SDS011;66564;42.482;25.548;2023-03-14T07:15:38;3.88;;;2.35;;
77466;SDS011;66564;42.482;25.548;2023-03-14T07:18:05;4.53;;;2.60;;
77466;SDS011;66564;42.482;25.548;2023-03-14T07:20:30;6.35;;;2.40;;
77466;SDS011;66564;42.482;25.548;2023-03-14T07:22:57;3.47;;;2.08;;
77466;SDS011;66564;42.482;25.548;2023-03-14T07:25:24;5.00;;;2.22;;
77466;SDS011;66564;42.482;25.548;2023-03-14T07:27:50;3.30;;;2.08;;
77466;SDS011;66564;42.482;25.548;2023-03-14T07:30:16;4.40;;;2.88;;
77466;SDS011;66564;42.482;25.548;2023-03-14T07:32:42;4.00;;;2.22;;
77466;SDS011;66564;42.482;25.548;2023-03-14T07:35:07;3.88;;;2.55;;
77466;SDS011;66564;42.482;25.548;2023-03-14T07:37:33;3.35;;;2.47;;
77466;SDS011;66564;42.482;25.548;2023-03-14T07:39:58;7.10;;;2.70;;
77466;SDS011;66564;42.482;25.548;2023-03-14T07:42:24;4.47;;;2.38;;
77466;SDS011;66564;42.482;25.548;2023-03-14T07:44:49;16.15;;;3.45;;
77466;SDS011;66564;42.482;25.548;2023-03-14T07:47:15;6.40;;;3.17;;
77466;SDS011;66564;42.482;25.548;2023-03-14T07:49:40;3.72;;;2.25;;
77466;SDS011;66564;42.482;25.548;2023-03-14T07:52:06;8.15;;;3.15;;
77466;SDS011;66564;42.482;25.548;2023-03-14T07:54:31;5.55;;;2.95;;
77466;SDS011;66564;42.482;25.548;2023-03-14T07:56:57;3.58;;;2.15;;
77466;SDS011;66564;42.482;25.548;2023-03-14T07:59:27;15.07;;;2.95;;
77466;SDS011;66564;42.482;25.548;2023-03-14T08:01:52;4.03;;;2.58;;
77466;SDS011;66564;42.482;25.548;2023-03-14T08:04:18;3.65;;;2.35;;
77466;SDS011;66564;42.482;25.548;2023-03-14T08:06:43;5.43;;;2.20;;
77466;SDS011;66564;42.482;25.548;2023-03-14T08:09:09;5.40;;;2.90;;
77466;SDS011;66564;42.482;25.548;2023-03-14T08:11:35;5.78;;;2.85;;
77466;SDS011;66564;42.482;25.548;2023-03-14T08:14:01;8.30;;;3.33;;
77466;SDS011;66564;42.482;25.548;2023-03-14T08:16:26;5.22;;;3.05;;
77466;SDS011;66564;42.482;25.548;2023-03-14T08:18:52;3.45;;;2.60;;
77466;SDS011;66564;42.482;25.548;2023-03-14T08:21:17;6.50;;;2.67;;
77466;SDS011;66564;42.482;25.548;2023-03-14T08:23:43;4.65;;;2.60;;
77466;SDS011;66564;42.482;25.548;2023-03-14T08:26:08;4.03;;;2.42;;
77466;SDS011;66564;42.482;25.548;2023-03-14T08:28:34;5.95;;;2.85;;
77466;SDS011;66564;42.482;25.548;2023-03-14T08:31:00;8.75;;;2.78;;
77466;SDS011;66564;42.482;25.548;2023-03-14T08:33:27;6.75;;;2.50;;
77466;SDS011;66564;42.482;25.548;2023-03-14T08:35:54;3.58;;;2.40;;
77466;SDS011;66564;42.482;25.548;2023-03-14T08:38:20;3.42;;;2.13;;
77466;SDS011;66564;42.482;25.548;2023-03-14T08:40:46;4.38;;;2.65;;
77466;SDS011;66564;42.482;25.548;2023-03-14T08:43:12;3.10;;;2.35;;
77466;SDS011;66564;42.482;25.548;2023-03-14T08:45:38;4.50;;;2.53;;
77466;SDS011;66564;42.482;25.548;2023-03-14T08:48:03;6.18;;;2.75;;
77466;SDS011;66564;42.482;25.548;2023-03-14T08:50:29;3.47;;;2.30;;
77466;SDS011;66564;42.482;25.548;2023-03-14T08:52:55;4.70;;;2.63;;
77466;SDS011;66564;42.482;25.548;2023-03-14T08:55:22;5.00;;;2.22;;
77466;SDS011;66564;42.482;25.548;2023-03-14T08:57:48;6.35;;;2.60;;
77466;SDS011;66564;42.482;25.548;2023-03-14T09:00:13;3.60;;;2.60;;
77466;SDS011;66564;42.482;25.548;2023-03-14T09:02:40;10.60;;;2.95;;
77466;SDS011;66564;42.482;25.548;2023-03-14T09:05:08;3.92;;;2.90;;
77466;SDS011;66564;42.482;25.548;2023-03-14T09:07:35;5.30;;;2.65;;
77466;SDS011;66564;42.482;25.548;2023-03-14T09:10:00;5.57;;;2.60;;
77466;SDS011;66564;42.482;25.548;2023-03-14T09:12:26;3.50;;;2.55;;
77466;SDS011;66564;42.482;25.548;2023-03-14T09:14:51;4.00;;;2.72;;
77466;SDS011;66564;42.482;25.548;2023-03-14T09:17:17;3.97;;;2.47;;
77466;SDS011;66564;42.482;25.548;2023-03-14T09:19:42;4.53;;;2.70;;
77466;SDS011;66564;42.482;25.548;2023-03-14T09:22:08;4.85;;;3.00;;
77466;SDS011;66564;42.482;25.548;2023-03-14T09:24:34;4.05;;;2.70;;
77466;SDS011;66564;42.482;25.548;2023-03-14T09:26:59;5.68;;;2.47;;
77466;SDS011;66564;42.482;25.548;2023-03-14T09:29:25;3.63;;;2.40;;
77466;SDS011;66564;42.482;25.548;2023-03-14T09:31:50;4.63;;;2.63;;
77466;SDS011;66564;42.482;25.548;2023-03-14T09:34:16;4.55;;;2.25;;
77466;SDS011;66564;42.482;25.548;2023-03-14T09:36:41;6.53;;;3.05;;
77466;SDS011;66564;42.482;25.548;2023-03-14T09:39:09;3.90;;;2.65;;
77466;SDS011;66564;42.482;25.548;2023-03-14T09:41:36;5.10;;;2.92;;
77466;SDS011;66564;42.482;25.548;2023-03-14T09:46:45;4.25;;;2.45;;
77466;SDS011;66564;42.482;25.548;2023-03-14T09:49:22;4.15;;;2.30;;
77466;SDS011;66564;42.482;25.548;2023-03-14T09:51:53;4.53;;;3.00;;
77466;SDS011;66564;42.482;25.548;2023-03-14T09:54:31;5.82;;;2.70;;
77466;SDS011;66564;42.482;25.548;2023-03-14T09:57:03;5.20;;;3.17;;
77466;SDS011;66564;42.482;25.548;2023-03-14T09:59:30;7.05;;;2.65;;
77466;SDS011;66564;42.482;25.548;2023-03-14T10:02:00;8.10;;;2.95;;
77466;SDS011;66564;42.482;25.548;2023-03-14T10:04:26;5.22;;;2.40;;
77466;SDS011;66564;42.482;25.548;2023-03-14T10:06:55;4.35;;;2.63;;
77466;SDS011;66564;42.482;25.548;2023-03-14T10:09:21;6.97;;;2.72;;
77466;SDS011;66564;42.482;25.548;2023-03-14T10:11:54;7.40;;;2.80;;
77466;SDS011;66564;42.482;25.548;2023-03-14T10:14:32;6.70;;;2.70;;
77466;SDS011;66564;42.482;25.548;2023-03-14T10:17:09;4.43;;;2.50;;
77466;SDS011;66564;42.482;25.548;2023-03-14T10:19:37;5.35;;;2.50;;
77466;SDS011;66564;42.482;25.548;2023-03-14T10:22:15;3.80;;;2.30;;
77466;SDS011;66564;42.482;25.548;2023-03-14T10:24:45;4.03;;;2.60;;
77466;SDS011;66564;42.482;25.548;2023-03-14T10:27:21;3.63;;;2.15;;
77466;SDS011;66564;42.482;25.548;2023-03-14T10:29:58;3.92;;;2.40;;
77466;SDS011;66564;42.482;25.548;2023-03-14T10:32:32;7.40;;;2.85;;
77466;SDS011;66564;42.482;25.548;2023-03-14T10:35:07;3.95;;;2.53;;
77466;SDS011;66564;42.482;25.548;2023-03-14T10:37:51;4.07;;;2.80;;
77466;SDS011;66564;42.482;25.548;2023-03-14T10:40:31;5.72;;;3.00;;
77466;SDS011;66564;42.482;25.548;2023-03-14T10:42:59;6.35;;;2.80;;
77466;SDS011;66564;42.482;25.548;2023-03-14T10:53:46;4.10;;;2.72;;
77466;SDS011;66564;42.482;25.548;2023-03-14T10:58:43;4.45;;;2.83;;
77466;SDS011;66564;42.482;25.548;2023-03-14T11:04:03;5.55;;;3.10;;
77466;SDS011;66564;42.482;25.548;2023-03-14T11:12:19;8.55;;;3.20;;
77466;SDS011;66564;42.482;25.548;2023-03-14T11:23:40;6.90;;;3.72;;
77466;SDS011;66564;42.482;25.548;2023-03-14T11:28:36;7.18;;;4.10;;
77466;SDS011;66564;42.482;25.548;2023-03-14T11:31:05;8.35;;;3.80;;
77466;SDS011;66564;42.482;25.548;2023-03-14T11:33:46;6.10;;;4.03;;
77466;SDS011;66564;42.482;25.548;2023-03-14T11:36:30;7.63;;;3.83;;
77466;SDS011;66564;42.482;25.548;2023-03-14T11:38:59;7.80;;;4.95;;
77466;SDS011;66564;42.482;25.548;2023-03-14T11:41:25;6.43;;;3.60;;
77466;SDS011;66564;42.482;25.548;2023-03-14T11:43:58;6.30;;;3.50;;
77466;SDS011;66564;42.482;25.548;2023-03-14T11:46:28;7.93;;;3.95;;
77466;SDS011;66564;42.482;25.548;2023-03-14T11:51:58;6.82;;;3.97;;
77466;SDS011;66564;42.482;25.548;2023-03-14T11:57:18;6.07;;;4.65;;
77466;SDS011;66564;42.482;25.548;2023-03-14T12:02:41;6.53;;;4.03;;
77466;SDS011;66564;42.482;25.548;2023-03-14T12:05:34;8.73;;;3.45;;
77466;SDS011;66564;42.482;25.548;2023-03-14T12:08:24;6.80;;;4.15;;
77466;SDS011;66564;42.482;25.548;2023-03-14T12:11:21;5.88;;;3.88;;
77466;SDS011;66564;42.482;25.548;2023-03-14T12:16:55;10.45;;;4.00;;
77466;SDS011;66564;42.482;25.548;2023-03-14T12:22:23;8.15;;;3.70;;
77466;SDS011;66564;42.482;25.548;2023-03-14T12:25:32;8.80;;;4.03;;
77466;SDS011;66564;42.482;25.548;2023-03-14T12:30:52;5.07;;;3.42;;
77466;SDS011;66564;42.482;25.548;2023-03-14T12:33:12;7.32;;;3.53;;
77466;SDS011;66564;42.482;25.548;2023-03-14T12:35:49;4.40;;;2.85;;
77466;SDS011;66564;42.482;25.548;2023-03-14T12:41:37;6.20;;;3.10;;
77466;SDS011;66564;42.482;25.548;2023-03-14T12:49:46;5.05;;;3.55;;
77466;SDS011;66564;42.482;25.548;2023-03-14T12:52:14;5.63;;;3.45;;
77466;SDS011;66564;42.482;25.548;2023-03-14T12:54:45;7.88;;;4.00;;
77466;SDS011;66564;42.482;25.548;2023-03-14T12:57:27;6.85;;;3.47;;
77466;SDS011;66564;42.482;25.548;2023-03-14T12:59:58;10.13;;;5.07;;
77466;SDS011;66564;42.482;25.548;2023-03-14T13:02:44;5.93;;;3.30;;
77466;SDS011;66564;42.482;25.548;2023-03-14T13:05:12;4.95;;;3.67;;
77466;SDS011;66564;42.482;25.548;2023-03-14T13:12:49;5.82;;;3.80;;
77466;SDS011;66564;42.482;25.548;2023-03-14T13:15:32;5.97;;;4.18;;
77466;SDS011;66564;42.482;25.548;2023-03-14T13:18:14;6.57;;;3.90;;
77466;SDS011;66564;42.482;25.548;2023-03-14T13:20:44;9.85;;;3.58;;
77466;SDS011;66564;42.482;25.548;2023-03-14T13:23:26;5.57;;;3.58;;
77466;SDS011;66564;42.482;25.548;2023-03-14T13:25:54;5.60;;;4.07;;
77466;SDS011;66564;42.482;25.548;2023-03-14T13:28:20;9.10;;;4.25;;
77466;SDS011;66564;42.482;25.548;2023-03-14T13:30:46;5.03;;;3.55;;
77466;SDS011;66564;42.482;25.548;2023-03-14T13:33:14;7.50;;;3.10;;
77466;SDS011;66564;42.482;25.548;2023-03-14T13:35:45;5.63;;;3.80;;
77466;SDS011;66564;42.482;25.548;2023-03-14T13:38:19;5.18;;;3.38;;
77466;SDS011;66564;42.482;25.548;2023-03-14T13:40:50;4.60;;;3.15;;
77466;SDS011;66564;42.482;25.548;2023-03-14T13:43:19;7.63;;;3.25;;
77466;SDS011;66564;42.482;25.548;2023-03-14T13:46:01;7.53;;;2.95;;
77466;SDS011;66564;42.482;25.548;2023-03-14T13:48:44;7.18;;;3.30;;
77466;SDS011;66564;42.482;25.548;2023-03-14T13:51:13;11.93;;;3.75;;
77466;SDS011;66564;42.482;25.548;2023-03-14T13:53:45;5.35;;;3.10;;
77466;SDS011;66564;42.482;25.548;2023-03-14T13:56:12;4.63;;;2.65;;
77466;SDS011;66564;42.482;25.548;2023-03-14T13:58:38;6.25;;;2.95;;
77466;SDS011;66564;42.482;25.548;2023-03-14T14:03:38;4.90;;;2.72;;
77466;SDS011;66564;42.482;25.548;2023-03-14T14:06:08;6.85;;;2.65;;
77466;SDS011;66564;42.482;25.548;2023-03-14T14:11:08;11.02;;;3.22;;
77466;SDS011;66564;42.482;25.548;2023-03-14T14:16:11;5.60;;;2.95;;
77466;SDS011;66564;42.482;25.548;2023-03-14T14:18:37;8.02;;;3.00;;
77466;SDS011;66564;42.482;25.548;2023-03-14T14:21:03;4.88;;;2.47;;
77466;SDS011;66564;42.482;25.548;2023-03-14T14:23:29;4.72;;;2.80;;
77466;SDS011;66564;42.482;25.548;2023-03-14T14:25:56;8.35;;;3.28;;
77466;SDS011;66564;42.482;25.548;2023-03-14T14:28:34;4.60;;;2.83;;
77466;SDS011;66564;42.482;25.548;2023-03-14T14:33:42;4.53;;;2.70;;
77466;SDS011;66564;42.482;25.548;2023-03-14T14:36:22;5.88;;;2.78;;
77466;SDS011;66564;42.482;25.548;2023-03-14T14:38:58;13.23;;;3.22;;
77466;SDS011;66564;42.482;25.548;2023-03-14T14:41:29;8.27;;;2.90;;
77466;SDS011;66564;42.482;25.548;2023-03-14T14:43:56;8.02;;;3.40;;
77466;SDS011;66564;42.482;25.548;2023-03-14T14:46:23;5.28;;;2.60;;
77466;SDS011;66564;42.482;25.548;2023-03-14T14:49:29;6.38;;;2.80;;
77466;SDS011;66564;42.482;25.548;2023-03-14T14:52:01;5.75;;;2.90;;
77466;SDS011;66564;42.482;25.548;2023-03-14T14:54:33;6.43;;;3.22;;
77466;SDS011;66564;42.482;25.548;2023-03-14T14:57:02;7.25;;;2.72;;
77466;SDS011;66564;42.482;25.548;2023-03-14T14:59:29;9.65;;;3.13;;
77466;SDS011;66564;42.482;25.548;2023-03-14T15:01:59;10.23;;;3.35;;
77466;SDS011;66564;42.482;25.548;2023-03-14T15:04:26;10.40;;;3.33;;
77466;SDS011;66564;42.482;25.548;2023-03-14T15:06:55;8.82;;;2.83;;
77466;SDS011;66564;42.482;25.548;2023-03-14T15:09:20;5.40;;;2.92;;
77466;SDS011;66564;42.482;25.548;2023-03-14T15:11:46;6.10;;;3.22;;
77466;SDS011;66564;42.482;25.548;2023-03-14T15:14:12;4.78;;;2.90;;
77466;SDS011;66564;42.482;25.548;2023-03-14T15:16:38;4.65;;;3.15;;
77466;SDS011;66564;42.482;25.548;2023-03-14T15:19:12;9.70;;;3.42;;
77466;SDS011;66564;42.482;25.548;2023-03-14T15:21:46;6.88;;;3.30;;
77466;SDS011;66564;42.482;25.548;2023-03-14T15:24:11;7.03;;;3.05;;
77466;SDS011;66564;42.482;25.548;2023-03-14T15:26:37;7.45;;;3.20;;
77466;SDS011;66564;42.482;25.548;2023-03-14T15:29:03;11.80;;;5.50;;
77466;SDS011;66564;42.482;25.548;2023-03-14T15:31:32;8.98;;;3.85;;
77466;SDS011;66564;42.482;25.548;2023-03-14T15:33:58;4.75;;;2.83;;
77466;SDS011;66564;42.482;25.548;2023-03-14T15:36:25;9.85;;;4.88;;
77466;SDS011;66564;42.482;25.548;2023-03-14T15:38:52;5.97;;;3.28;;
77466;SDS011;66564;42.482;25.548;2023-03-14T15:41:19;7.65;;;4.03;;
77466;SDS011;66564;42.482;25.548;2023-03-14T15:43:46;7.82;;;3.22;;
77466;SDS011;66564;42.482;25.548;2023-03-14T15:46:12;4.55;;;2.53;;
77466;SDS011;66564;42.482;25.548;2023-03-14T15:48:38;6.50;;;4.65;;
77466;SDS011;66564;42.482;25.548;2023-03-14T15:51:05;14.68;;;6.22;;
77466;SDS011;66564;42.482;25.548;2023-03-14T15:53:31;21.90;;;8.77;;
77466;SDS011;66564;42.482;25.548;2023-03-14T15:55:56;14.50;;;8.15;;
77466;SDS011;66564;42.482;25.548;2023-03-14T15:58:22;13.38;;;7.47;;
77466;SDS011;66564;42.482;25.548;2023-03-14T16:00:48;5.60;;;3.60;;
77466;SDS011;66564;42.482;25.548;2023-03-14T16:03:14;4.97;;;3.50;;
77466;SDS011;66564;42.482;25.548;2023-03-14T16:05:40;4.55;;;2.80;;